Time;durP1;ratioP1;P1;durP2;ratioP2;P2;SDS_P1;SDS_P2;PMS_P1;PMS_P2;Temp;Humidity;BMP_temperature;BMP_pressure;BME280_temperature;BME280_humidity;BME280_pressure;Samples;Min_cycle;Max_cycle;Signal;HPM_P1;HPM_P2
2023/12/07 00:01:34;;;;;;;10.75;6.25;;;3.40;99.90;;;;;;6180638;23;20036;-67
2023/12/07 00:04:00;;;;;;;13.07;7.20;;;3.30;99.90;;;;;;6180948;23;20025;-67
2023/12/07 00:06:26;;;;;;;10.55;7.05;;;3.30;99.90;;;;;;6181368;23;20083;-67
2023/12/07 00:08:52;;;;;;;11.13;6.47;;;3.30;99.90;;;;;;6181533;23;20389;-67
2023/12/07 00:11:18;;;;;;;10.80;6.93;;;3.20;99.90;;;;;;6181457;23;20377;-67
2023/12/07 00:13:43;;;;;;;11.85;6.68;;;3.20;99.90;;;;;;6179935;23;20017;-67
2023/12/07 00:16:10;;;;;;;10.57;6.50;;;3.20;99.90;;;;;;6181170;23;20017;-66
2023/12/07 00:18:35;;;;;;;11.18;7.28;;;3.10;99.90;;;;;;6154236;23;20476;-67
2023/12/07 00:21:01;;;;;;;12.82;7.40;;;3.20;99.90;;;;;;6181061;23;20025;-66
2023/12/07 00:23:27;;;;;;;8.82;6.55;;;3.20;99.90;;;;;;6181387;23;20029;-67
2023/12/07 00:25:52;;;;;;;11.65;6.88;;;3.30;99.90;;;;;;6154308;23;20029;-67
2023/12/07 00:28:18;;;;;;;9.43;7.00;;;3.20;99.90;;;;;;6180918;23;20021;-67
2023/12/07 00:30:44;;;;;;;11.02;7.10;;;3.20;99.90;;;;;;6180917;23;20027;-67
2023/12/07 00:33:09;;;;;;;10.88;6.68;;;3.20;99.90;;;;;;6154317;23;20473;-67
2023/12/07 00:35:35;;;;;;;12.88;7.32;;;3.20;99.90;;;;;;6181320;23;20049;-67
2023/12/07 00:38:01;;;;;;;9.93;6.85;;;3.20;99.90;;;;;;6180720;23;20017;-67
2023/12/07 00:40:27;;;;;;;10.38;6.40;;;3.20;99.90;;;;;;6180670;23;20024;-67
2023/12/07 00:42:53;;;;;;;12.85;7.40;;;3.20;99.90;;;;;;6181095;23;20098;-67
2023/12/07 00:45:19;;;;;;;10.88;6.53;;;3.20;99.90;;;;;;6180622;23;20095;-67
2023/12/07 00:47:45;;;;;;;11.95;6.57;;;3.10;99.90;;;;;;6154107;23;20013;-66
2023/12/07 00:50:14;;;;;;;10.05;7.00;;;3.10;99.90;;;;;;6154257;23;20028;-67
2023/12/07 00:52:40;;;;;;;9.82;6.60;;;3.10;99.90;;;;;;6181254;23;20013;-67
2023/12/07 00:55:06;;;;;;;8.77;6.28;;;3.10;99.90;;;;;;6181317;23;20095;-67
2023/12/07 00:57:32;;;;;;;12.15;6.75;;;3.10;99.90;;;;;;6181236;23;20051;-67
2023/12/07 00:59:57;;;;;;;10.18;6.90;;;3.10;99.90;;;;;;6191219;23;20082;-67
2023/12/07 01:02:24;;;;;;;11.45;7.07;;;3.10;99.90;;;;;;6210778;23;20027;-67
2023/12/07 01:04:49;;;;;;;9.38;6.68;;;3.10;99.90;;;;;;6210973;23;20051;-67
2023/12/07 01:07:15;;;;;;;12.05;7.82;;;3.10;99.90;;;;;;6211169;23;20013;-67
2023/12/07 01:09:41;;;;;;;9.05;6.78;;;3.10;99.90;;;;;;6208949;23;20099;-67
2023/12/07 01:12:06;;;;;;;11.65;8.05;;;3.10;99.90;;;;;;6211349;23;20441;-67
2023/12/07 01:14:32;;;;;;;14.13;7.53;;;3.10;99.90;;;;;;6208836;23;20393;-68
2023/12/07 01:16:58;;;;;;;13.40;8.25;;;3.10;99.90;;;;;;6209293;23;20025;-67
2023/12/07 01:19:24;;;;;;;13.63;8.90;;;3.10;99.90;;;;;;6209345;23;20016;-67
2023/12/07 01:21:50;;;;;;;15.40;8.27;;;3.20;99.90;;;;;;6210695;23;20027;-67
2023/12/07 01:24:16;;;;;;;16.13;9.02;;;3.10;99.90;;;;;;6208684;23;20024;-67
2023/12/07 01:26:42;;;;;;;12.88;8.65;;;3.10;99.90;;;;;;6210743;23;20024;-67
2023/12/07 01:29:08;;;;;;;13.85;8.15;;;3.10;99.90;;;;;;6208623;23;20099;-67
2023/12/07 01:31:33;;;;;;;14.68;8.13;;;3.10;99.90;;;;;;6208735;23;20060;-67
2023/12/07 01:33:59;;;;;;;14.45;8.68;;;3.10;99.90;;;;;;6210800;23;20024;-67
2023/12/07 01:36:25;;;;;;;11.60;8.45;;;3.20;99.90;;;;;;6210960;23;20115;-67
2023/12/07 01:38:50;;;;;;;13.05;8.00;;;3.20;99.90;;;;;;6210526;23;20016;-67
2023/12/07 01:41:16;;;;;;;13.52;8.50;;;3.20;99.90;;;;;;6210885;23;20029;-66
2023/12/07 01:43:46;;;;;;;12.35;8.35;;;3.10;99.90;;;;;;6208852;23;20099;-67
2023/12/07 01:46:13;;;;;;;13.32;9.60;;;3.10;99.90;;;;;;6210841;23;20103;-67
2023/12/07 01:48:39;;;;;;;15.02;9.77;;;3.10;99.90;;;;;;6212569;23;20020;-67
2023/12/07 01:51:06;;;;;;;16.45;9.52;;;3.10;99.90;;;;;;6212509;23;20430;-66
2023/12/07 01:53:32;;;;;;;16.45;9.93;;;3.10;99.90;;;;;;6212377;23;20513;-67
2023/12/07 01:55:58;;;;;;;12.68;8.55;;;3.20;99.90;;;;;;6212679;23;20038;-66
2023/12/07 01:58:24;;;;;;;11.57;7.43;;;3.10;99.90;;;;;;6211815;23;20096;-67
2023/12/07 02:00:50;;;;;;;14.85;9.27;;;3.10;99.90;;;;;;6212331;23;20032;-66
2023/12/07 02:03:17;;;;;;;15.73;9.43;;;3.20;99.90;;;;;;6210722;23;20024;-67
2023/12/07 02:05:46;;;;;;;14.38;9.75;;;3.10;99.90;;;;;;6212884;23;20020;-67
2023/12/07 02:08:12;;;;;;;15.50;9.70;;;3.10;99.90;;;;;;6213081;23;20024;-67
2023/12/07 02:10:38;;;;;;;14.80;9.82;;;3.10;99.90;;;;;;6211348;23;20035;-67
2023/12/07 02:13:04;;;;;;;14.23;8.98;;;3.20;99.90;;;;;;6210571;23;20024;-67
2023/12/07 02:15:30;;;;;;;14.65;10.40;;;3.20;99.90;;;;;;6212573;23;20547;-67
2023/12/07 02:18:20;;;;;;;14.85;9.68;;;3.10;99.90;;;;;;6212813;23;20074;-67
2023/12/07 02:20:51;;;;;;;15.50;9.20;;;3.10;99.90;;;;;;6212788;23;20016;-66
2023/12/07 02:23:18;;;;;;;13.63;9.50;;;3.20;99.90;;;;;;6212489;23;20115;-67
2023/12/07 02:25:52;;;;;;;17.05;9.45;;;3.10;99.90;;;;;;6212408;23;20035;-66
2023/12/07 02:28:17;;;;;;;15.63;10.23;;;3.10;99.90;;;;;;6210060;23;20020;-66
2023/12/07 02:30:44;;;;;;;17.02;10.18;;;3.10;99.90;;;;;;6210266;23;20085;-66
2023/12/07 02:33:10;;;;;;;17.40;10.27;;;3.10;99.90;;;;;;6212178;23;20020;-67
2023/12/07 02:35:38;;;;;;;19.50;10.95;;;3.10;99.90;;;;;;6212452;23;20044;-66
2023/12/07 02:38:06;;;;;;;15.70;10.18;;;3.10;99.90;;;;;;6211998;23;20150;-67
2023/12/07 02:40:32;;;;;;;16.70;9.82;;;3.10;99.90;;;;;;6210356;23;20021;-67
2023/12/07 02:42:59;;;;;;;14.35;9.10;;;3.10;99.90;;;;;;6211709;23;20028;-67
2023/12/07 02:45:26;;;;;;;15.70;9.77;;;3.10;99.90;;;;;;6212064;23;20099;-66
2023/12/07 02:47:52;;;;;;;17.88;9.93;;;3.10;99.90;;;;;;6211950;23;20124;-67
2023/12/07 02:50:18;;;;;;;19.25;10.13;;;3.10;99.90;;;;;;6211924;23;20048;-67
2023/12/07 02:52:43;;;;;;;16.63;10.05;;;3.10;99.90;;;;;;6212073;23;20032;-66
2023/12/07 02:55:09;;;;;;;22.42;11.82;;;3.10;99.90;;;;;;6212115;23;20103;-67
2023/12/07 02:57:35;;;;;;;17.52;9.80;;;3.00;99.90;;;;;;6209245;23;20031;-67
2023/12/07 03:00:08;;;;;;;16.90;10.88;;;3.00;99.90;;;;;;6211478;23;20028;-67
2023/12/07 03:02:37;;;;;;;;;;;2.90;99.90;;;;;;6210814;23;20499;-67
2023/12/07 03:05:03;;;;;;;16.20;9.02;;;2.90;99.90;;;;;;6211702;23;20236;-66
2023/12/07 03:07:29;;;;;;;15.60;9.40;;;2.80;99.90;;;;;;6209911;23;20028;-67
2023/12/07 03:09:55;;;;;;;19.02;10.50;;;2.80;99.90;;;;;;6211703;23;20019;-67
2023/12/07 03:12:21;;;;;;;15.77;9.68;;;2.80;99.90;;;;;;6184745;23;20028;-67
2023/12/07 03:14:46;;;;;;;16.75;9.07;;;2.70;99.90;;;;;;6211732;23;20103;-67
2023/12/07 03:17:13;;;;;;;19.33;10.20;;;2.70;99.90;;;;;;6211363;23;20021;-66
2023/12/07 03:19:40;;;;;;;16.58;9.32;;;2.60;99.90;;;;;;6209857;23;20540;-67
2023/12/07 03:22:08;;;;;;;16.38;9.52;;;2.60;99.90;;;;;;6210370;23;20031;-67
2023/12/07 03:24:38;;;;;;;16.98;9.40;;;2.60;99.90;;;;;;6210474;23;20318;-66
2023/12/07 03:27:04;;;;;;;16.63;9.25;;;2.50;99.90;;;;;;6209480;23;20025;-67
2023/12/07 03:29:31;;;;;;;16.02;10.00;;;2.60;99.90;;;;;;6211793;23;20091;-67
2023/12/07 03:31:57;;;;;;;20.40;10.18;;;2.50;99.90;;;;;;6210168;23;20021;-67
2023/12/07 03:34:23;;;;;;;20.70;10.05;;;2.50;99.90;;;;;;6209778;23;20032;-67
2023/12/07 03:36:49;;;;;;;15.38;9.82;;;2.50;99.90;;;;;;6211381;23;20017;-67
2023/12/07 03:39:16;;;;;;;16.77;10.18;;;2.50;99.90;;;;;;6209818;23;20032;-67
2023/12/07 03:41:41;;;;;;;12.82;8.30;;;2.40;99.90;;;;;;6210948;23;20126;-67
2023/12/07 03:44:07;;;;;;;17.13;9.57;;;2.30;99.90;;;;;;6211735;23;20017;-66
2023/12/07 03:46:33;;;;;;;16.55;10.32;;;2.40;99.90;;;;;;6211460;23;20024;-66
2023/12/07 03:48:59;;;;;;;14.60;9.93;;;2.30;99.90;;;;;;6211548;23;20019;-66
2023/12/07 03:51:27;;;;;;;18.60;10.18;;;2.30;99.90;;;;;;6211668;23;20028;-66
2023/12/07 03:53:54;;;;;;;14.02;9.27;;;2.20;99.90;;;;;;6211566;23;20056;-66
2023/12/07 03:56:30;;;;;;;15.82;10.25;;;2.20;99.90;;;;;;6211119;23;20047;-66
2023/12/07 03:58:56;;;;;;;20.17;9.80;;;2.20;99.90;;;;;;6209385;23;20034;-66
2023/12/07 04:01:27;;;;;;;19.95;10.18;;;2.10;99.90;;;;;;6209325;23;20028;-66
2023/12/07 04:04:00;;;;;;;16.50;9.07;;;2.10;99.90;;;;;;6211572;23;20017;-66
2023/12/07 04:06:26;;;;;;;17.13;10.27;;;2.10;99.90;;;;;;6184438;23;20033;-66
2023/12/07 04:08:53;;;;;;;18.30;9.82;;;2.10;99.90;;;;;;6210623;23;20461;-66
2023/12/07 04:11:19;;;;;;;16.52;9.63;;;2.00;99.90;;;;;;6209340;23;20201;-66
2023/12/07 04:13:45;;;;;;;18.10;10.18;;;2.00;99.90;;;;;;6209338;23;20025;-67
2023/12/07 04:16:11;;;;;;;22.80;10.70;;;2.00;99.90;;;;;;6210914;23;20052;-66
2023/12/07 04:18:37;;;;;;;17.30;10.60;;;1.90;99.90;;;;;;6209325;23;20016;-66
2023/12/07 04:21:03;;;;;;;18.23;9.98;;;1.90;99.90;;;;;;6209381;23;20029;-66
2023/12/07 04:23:29;;;;;;;20.73;10.77;;;1.90;99.90;;;;;;6209015;23;20023;-67
2023/12/07 04:25:55;;;;;;;17.23;10.38;;;1.90;99.90;;;;;;6211372;23;20020;-66
2023/12/07 04:28:20;;;;;;;21.23;11.70;;;2.00;99.90;;;;;;6211694;23;20020;-67
2023/12/07 04:30:46;;;;;;;19.05;11.13;;;2.00;99.90;;;;;;6209647;23;20024;-66
2023/12/07 04:33:12;;;;;;;18.83;10.43;;;2.00;99.90;;;;;;6211416;23;20017;-67
2023/12/07 04:35:37;;;;;;;21.90;12.00;;;2.00;99.90;;;;;;6211530;23;20016;-66
2023/12/07 04:38:03;;;;;;;18.48;11.15;;;2.00;99.90;;;;;;6211039;23;20039;-67
2023/12/07 04:40:29;;;;;;;20.30;11.88;;;1.90;99.90;;;;;;6211634;23;20133;-66
2023/12/07 04:42:54;;;;;;;19.17;11.30;;;2.10;99.90;;;;;;6211047;23;20020;-67
2023/12/07 04:45:20;;;;;;;22.10;12.93;;;2.00;99.90;;;;;;6209260;23;20052;-66
2023/12/07 04:47:46;;;;;;;23.20;13.40;;;2.10;99.90;;;;;;6211067;23;20020;-66
2023/12/07 04:50:12;;;;;;;24.15;13.00;;;2.20;99.90;;;;;;6209252;23;20020;-67
2023/12/07 04:52:38;;;;;;;24.52;12.68;;;2.20;99.90;;;;;;6208672;23;20029;-67
2023/12/07 04:55:06;;;;;;;20.08;12.38;;;2.10;99.90;;;;;;6210995;23;20024;-67
2023/12/07 04:57:33;;;;;;;20.95;12.20;;;2.10;99.90;;;;;;6210878;23;20008;-66
2023/12/07 04:59:59;;;;;;;21.50;12.20;;;2.10;99.90;;;;;;6209284;23;20024;-67
2023/12/07 05:02:24;;;;;;;22.23;12.48;;;2.10;99.90;;;;;;6211234;23;20020;-67
2023/12/07 05:04:50;;;;;;;24.05;13.35;;;2.10;99.90;;;;;;6208954;23;20358;-67
2023/12/07 05:07:16;;;;;;;25.15;12.80;;;2.10;99.90;;;;;;6209000;23;20169;-67
2023/12/07 05:09:42;;;;;;;21.65;12.30;;;2.10;99.90;;;;;;6210629;23;20051;-67
2023/12/07 05:12:08;;;;;;;22.25;12.70;;;2.10;99.90;;;;;;6210529;23;20448;-66
2023/12/07 05:14:34;;;;;;;24.17;13.02;;;2.00;99.90;;;;;;6208742;23;20028;-66
2023/12/07 05:17:01;;;;;;;23.00;12.88;;;2.00;99.90;;;;;;6208911;23;20046;-67
2023/12/07 05:19:26;;;;;;;22.88;13.02;;;2.00;99.90;;;;;;6210864;23;20350;-67
2023/12/07 05:21:52;;;;;;;24.67;13.80;;;2.00;99.90;;;;;;6210648;23;20025;-66
2023/12/07 05:24:18;;;;;;;19.58;12.15;;;2.00;99.90;;;;;;6210560;23;20020;-66
2023/12/07 05:26:48;;;;;;;20.33;12.25;;;2.00;99.90;;;;;;6210871;23;20095;-67
2023/12/07 05:29:15;;;;;;;24.63;12.48;;;2.00;99.90;;;;;;6210628;23;20008;-67
2023/12/07 05:31:41;;;;;;;20.75;12.35;;;1.90;99.90;;;;;;6210502;23;20020;-66
2023/12/07 05:34:07;;;;;;;22.48;11.25;;;1.90;99.90;;;;;;6208658;23;20035;-66
2023/12/07 05:36:33;;;;;;;23.40;12.65;;;1.90;99.90;;;;;;6210235;23;20017;-67
2023/12/07 05:38:58;;;;;;;20.10;12.15;;;1.80;99.90;;;;;;6210356;23;20029;-66
2023/12/07 05:41:28;;;;;;;20.02;12.45;;;1.80;99.90;;;;;;6211243;23;20032;-66
2023/12/07 05:43:53;;;;;;;19.63;11.20;;;1.80;99.90;;;;;;6210823;23;20395;-67
2023/12/07 05:46:19;;;;;;;22.75;11.73;;;1.70;99.90;;;;;;6211414;23;20071;-66
2023/12/07 05:48:45;;;;;;;24.83;12.20;;;1.80;99.90;;;;;;6209665;23;20032;-67
2023/12/07 05:51:16;;;;;;;20.35;11.80;;;1.70;99.90;;;;;;6208764;23;20070;-66
2023/12/07 05:53:42;;;;;;;22.73;13.48;;;1.70;99.90;;;;;;6210870;23;20020;-66
2023/12/07 05:56:09;;;;;;;21.98;12.75;;;1.80;99.90;;;;;;6210872;23;20399;-66
2023/12/07 05:58:35;;;;;;;23.95;13.65;;;1.80;99.90;;;;;;6208788;23;20016;-67
2023/12/07 06:01:02;;;;;;;25.30;14.48;;;1.70;99.90;;;;;;6208678;23;20032;-66
2023/12/07 06:03:28;;;;;;;27.17;16.40;;;1.70;99.90;;;;;;6210922;23;20048;-67
2023/12/07 06:05:54;;;;;;;23.52;15.88;;;1.70;99.90;;;;;;6210629;23;20067;-66
2023/12/07 06:08:20;;;;;;;20.02;12.82;;;1.80;99.90;;;;;;6209295;23;20075;-66
2023/12/07 06:10:45;;;;;;;22.83;13.10;;;1.80;99.90;;;;;;6210864;23;20028;-67
2023/12/07 06:13:13;;;;;;;25.77;12.35;;;1.80;99.90;;;;;;6211030;23;20020;-68
2023/12/07 06:15:39;;;;;;;21.70;11.82;;;1.80;99.90;;;;;;6211324;23;20020;-67
2023/12/07 06:18:05;;;;;;;18.52;11.52;;;1.80;99.90;;;;;;6211044;23;20013;-65
2023/12/07 06:20:31;;;;;;;19.92;10.77;;;1.80;99.90;;;;;;6210727;23;20349;-65
2023/12/07 06:22:57;;;;;;;20.92;11.10;;;1.90;99.90;;;;;;6209178;23;20025;-67
2023/12/07 06:25:24;;;;;;;21.15;11.40;;;1.90;99.90;;;;;;6208632;23;20484;-67
2023/12/07 06:27:50;;;;;;;18.58;11.63;;;1.90;99.90;;;;;;6210682;23;20044;-67
2023/12/07 06:30:16;;;;;;;20.80;11.68;;;1.90;99.90;;;;;;6210770;23;20079;-67
2023/12/07 06:32:41;;;;;;;21.65;11.43;;;1.80;99.90;;;;;;6211932;23;20520;-67
2023/12/07 06:35:08;;;;;;;22.85;11.68;;;1.80;99.90;;;;;;6210057;23;20036;-65
2023/12/07 06:37:33;;;;;;;21.30;11.63;;;1.80;99.90;;;;;;6210368;23;20040;-67
2023/12/07 06:40:00;;;;;;;21.55;11.95;;;1.80;99.90;;;;;;6212960;23;20051;-67
2023/12/07 06:42:26;;;;;;;21.35;11.25;;;1.80;99.90;;;;;;6210686;23;20030;-67
2023/12/07 06:44:52;;;;;;;23.08;11.20;;;1.80;99.90;;;;;;6212543;23;20444;-67
2023/12/07 06:47:18;;;;;;;21.35;12.68;;;1.80;99.90;;;;;;6211964;23;20024;-68
2023/12/07 06:49:46;;;;;;;20.17;11.57;;;1.80;99.90;;;;;;6211895;23;20015;-67
2023/12/07 06:52:11;;;;;;;19.27;11.50;;;1.90;99.90;;;;;;6212479;23;20377;-68
2023/12/07 06:54:38;;;;;;;21.55;11.85;;;1.90;99.90;;;;;;6210525;23;20021;-68
2023/12/07 06:57:06;;;;;;;22.52;12.25;;;1.90;99.90;;;;;;6211998;23;20486;-67
2023/12/07 06:59:33;;;;;;;23.02;12.00;;;1.80;99.90;;;;;;6212274;23;20576;-67
2023/12/07 07:01:58;;;;;;;23.15;12.73;;;1.80;99.90;;;;;;6211696;23;20028;-67
2023/12/07 07:04:24;;;;;;;21.30;12.55;;;1.90;99.90;;;;;;6211686;23;20020;-65
2023/12/07 07:06:51;;;;;;;22.63;13.07;;;1.80;99.90;;;;;;6210351;23;20013;-66
2023/12/07 07:09:16;;;;;;;23.35;13.73;;;1.90;99.90;;;;;;6210601;23;20016;-66
2023/12/07 07:11:49;;;;;;;24.00;13.68;;;1.90;99.90;;;;;;6212418;23;20702;-66
2023/12/07 07:14:15;;;;;;;;;;;1.90;99.90;;;;;;6210027;23;20034;-65
2023/12/07 07:16:41;;;;;;;22.90;12.45;;;1.90;99.90;;;;;;6211389;23;19986;-66
2023/12/07 07:19:07;;;;;;;23.23;12.82;;;1.80;99.90;;;;;;6209680;23;20028;-66
2023/12/07 07:21:32;;;;;;;22.48;13.85;;;1.80;99.90;;;;;;6211780;23;20017;-66
2023/12/07 07:23:58;;;;;;;24.17;13.55;;;1.90;99.90;;;;;;6211386;23;20099;-66
2023/12/07 07:26:25;;;;;;;21.50;12.13;;;1.80;99.90;;;;;;6209484;23;20032;-65
2023/12/07 07:28:51;;;;;;;24.08;13.45;;;1.80;99.90;;;;;;6209745;23;20024;-66
2023/12/07 07:31:18;;;;;;;22.40;13.73;;;1.80;99.90;;;;;;6211794;23;20029;-65
2023/12/07 07:33:44;;;;;;;22.15;12.93;;;1.80;99.90;;;;;;6211414;23;20028;-65
2023/12/07 07:36:11;;;;;;;25.90;14.00;;;1.80;99.90;;;;;;6209909;23;20532;-68
2023/12/07 07:38:37;;;;;;;20.58;12.60;;;1.80;99.90;;;;;;6211812;23;20020;-68
2023/12/07 07:41:03;;;;;;;25.40;14.43;;;1.70;99.90;;;;;;6211976;23;20443;-68
2023/12/07 07:43:29;;;;;;;23.58;13.63;;;1.70;99.90;;;;;;6211461;23;20012;-68
2023/12/07 07:45:55;;;;;;;24.45;14.73;;;1.80;99.90;;;;;;6211534;23;20051;-65
2023/12/07 07:48:21;;;;;;;25.65;14.98;;;1.70;99.90;;;;;;6210017;23;20346;-65
2023/12/07 07:50:47;;;;;;;25.60;15.80;;;1.80;99.90;;;;;;6211674;23;20020;-65
2023/12/07 07:53:13;;;;;;;33.92;16.67;;;1.80;99.90;;;;;;6209541;23;20026;-68
2023/12/07 07:55:39;;;;;;;28.25;15.60;;;1.80;99.90;;;;;;6211705;23;20025;-67
2023/12/07 07:58:04;;;;;;;27.92;14.95;;;1.80;99.90;;;;;;6210864;23;20091;-67
2023/12/07 08:00:32;;;;;;;25.70;15.32;;;1.80;99.90;;;;;;6209077;23;20028;-65
2023/12/07 08:02:58;;;;;;;28.35;16.30;;;1.80;99.90;;;;;;6211539;23;20035;-68
2023/12/07 08:05:24;;;;;;;31.65;15.75;;;1.80;99.90;;;;;;6211687;23;20029;-68
2023/12/07 08:07:50;;;;;;;26.08;14.40;;;1.80;99.90;;;;;;6211602;23;20064;-67
2023/12/07 08:10:15;;;;;;;29.15;15.95;;;1.80;99.90;;;;;;6209568;23;20028;-68
2023/12/07 08:12:41;;;;;;;24.70;15.15;;;1.80;99.90;;;;;;6211681;23;20013;-67
2023/12/07 08:15:10;;;;;;;25.80;15.70;;;1.70;99.90;;;;;;6210851;23;20103;-66
2023/12/07 08:17:45;;;;;;;33.30;16.30;;;1.70;99.90;;;;;;6211513;23;20063;-66
2023/12/07 08:20:12;;;;;;;27.25;14.95;;;1.70;99.90;;;;;;6211629;23;20024;-66
2023/12/07 08:22:38;;;;;;;25.85;16.10;;;1.70;99.90;;;;;;6210999;23;20522;-66
2023/12/07 08:25:05;;;;;;;29.33;16.40;;;1.60;99.90;;;;;;6211176;23;20021;-66
2023/12/07 08:27:34;;;;;;;31.92;16.92;;;1.70;99.90;;;;;;6210964;23;20524;-66
2023/12/07 08:30:00;;;;;;;34.25;16.83;;;1.60;99.90;;;;;;6210921;23;20019;-67
2023/12/07 08:32:26;;;;;;;40.03;20.98;;;1.70;99.90;;;;;;6211161;23;20500;-66
2023/12/07 08:34:53;;;;;;;32.58;18.65;;;1.60;99.90;;;;;;6211510;23;20055;-67
2023/12/07 08:37:18;;;;;;;36.92;18.88;;;1.60;99.90;;;;;;6209522;23;20028;-66
2023/12/07 08:39:44;;;;;;;27.10;15.63;;;1.60;99.90;;;;;;6209169;23;20051;-66
2023/12/07 08:42:11;;;;;;;31.25;16.50;;;1.50;99.90;;;;;;6211339;23;20024;-66
2023/12/07 08:44:37;;;;;;;31.63;16.27;;;1.50;99.90;;;;;;6210821;23;20017;-66
2023/12/07 08:47:03;;;;;;;33.47;16.33;;;1.50;99.90;;;;;;6211076;23;20056;-67
2023/12/07 08:49:29;;;;;;;55.00;17.90;;;1.50;99.90;;;;;;6211312;23;20063;-67
2023/12/07 08:51:55;;;;;;;27.27;15.25;;;1.30;99.90;;;;;;6211265;23;20020;-66
2023/12/07 08:54:21;;;;;;;29.98;15.88;;;1.40;99.90;;;;;;6210619;23;20017;-66
2023/12/07 08:56:47;;;;;;;34.78;16.25;;;1.40;99.90;;;;;;6210666;23;20020;-66
2023/12/07 08:59:13;;;;;;;32.78;15.02;;;1.40;99.90;;;;;;6210552;23;20021;-66
2023/12/07 09:01:39;;;;;;;31.17;14.38;;;1.40;99.90;;;;;;6210866;23;20027;-66
2023/12/07 09:04:05;;;;;;;30.15;13.55;;;1.30;99.90;;;;;;6211220;23;20107;-66
2023/12/07 09:06:31;;;;;;;26.42;13.40;;;1.20;99.90;;;;;;6211196;23;20043;-67
2023/12/07 09:08:57;;;;;;;30.52;12.88;;;1.20;99.90;;;;;;6211073;23;20020;-66
2023/12/07 09:11:23;;;;;;;29.33;12.30;;;1.20;99.90;;;;;;6209098;23;20036;-66
2023/12/07 09:13:49;;;;;;;24.20;12.27;;;1.10;99.90;;;;;;6210766;23;20394;-67
2023/12/07 09:16:15;;;;;;;31.65;13.10;;;1.10;99.90;;;;;;6209242;23;20028;-66
2023/12/07 09:18:47;;;;;;;28.80;11.63;;;1.00;99.90;;;;;;6209352;23;20017;-67
2023/12/07 09:21:13;;;;;;;;;;;1.00;99.90;;;;;;6209533;23;20457;-66
2023/12/07 09:23:39;;;;;;;37.47;11.23;;;1.00;99.90;;;;;;6211048;23;19966;-66
2023/12/07 09:26:05;;;;;;;33.65;11.48;;;0.90;99.90;;;;;;6211188;23;20718;-66
2023/12/07 09:28:33;;;;;;;26.83;12.15;;;1.00;99.90;;;;;;6208018;23;20020;-66
2023/12/07 09:30:59;;;;;;;25.20;12.27;;;1.10;99.90;;;;;;6211043;23;20039;-67
2023/12/07 09:33:24;;;;;;;21.63;12.07;;;1.00;99.90;;;;;;6210770;23;20016;-67
2023/12/07 09:35:51;;;;;;;30.58;12.60;;;1.10;99.90;;;;;;6208781;23;20024;-67
2023/12/07 09:38:17;;;;;;;42.72;13.05;;;1.10;99.90;;;;;;6209075;23;20017;-66
2023/12/07 09:40:43;;;;;;;27.17;11.50;;;1.10;99.90;;;;;;6211062;23;20090;-67
2023/12/07 09:43:09;;;;;;;29.75;12.35;;;1.10;99.90;;;;;;6210942;23;20051;-67
2023/12/07 09:45:34;;;;;;;40.15;13.52;;;1.00;99.90;;;;;;6210998;23;20027;-67
2023/12/07 09:48:00;;;;;;;48.72;13.63;;;1.00;99.90;;;;;;6210642;23;20020;-67
2023/12/07 09:50:27;;;;;;;25.48;14.05;;;1.00;99.90;;;;;;6210255;23;20476;-67
2023/12/07 09:52:56;;;;;;;30.63;13.38;;;1.00;99.90;;;;;;6209101;23;20044;-68
2023/12/07 09:55:23;;;;;;;35.35;14.27;;;1.10;99.90;;;;;;6210489;23;20028;-68
2023/12/07 09:57:49;;;;;;;28.67;14.90;;;1.10;99.90;;;;;;6208310;23;20031;-68
2023/12/07 10:00:15;;;;;;;34.05;14.65;;;1.20;99.90;;;;;;6210675;23;20016;-68
2023/12/07 10:02:42;;;;;;;25.52;13.50;;;1.10;99.90;;;;;;6209160;23;20024;-68
2023/12/07 10:05:13;;;;;;;44.42;14.57;;;1.20;99.90;;;;;;6210873;23;20082;-68
2023/12/07 10:07:50;;;;;;;40.83;14.65;;;1.10;99.90;;;;;;6210724;23;20020;-68
2023/12/07 10:10:17;;;;;;;34.20;13.80;;;1.20;99.90;;;;;;6210722;23;20373;-68
2023/12/07 10:12:50;;;;;;;46.55;14.80;;;1.20;99.90;;;;;;6212591;23;20024;-68
2023/12/07 10:15:17;;;;;;;36.83;15.10;;;1.20;99.90;;;;;;6212370;23;20024;-68
2023/12/07 10:17:50;;;;;;;47.53;15.48;;;1.30;99.90;;;;;;6212491;23;20021;-68
2023/12/07 10:20:17;;;;;;;;;;;1.30;99.90;;;;;;6212790;23;20028;-68
2023/12/07 10:22:42;;;;;;;30.90;15.32;;;1.30;99.90;;;;;;6210574;23;19916;-68
2023/12/07 10:25:11;;;;;;;37.35;17.08;;;1.30;99.90;;;;;;6210378;23;20031;-68
2023/12/07 10:27:38;;;;;;;48.22;19.52;;;1.20;99.90;;;;;;6210279;23;20028;-68
2023/12/07 10:30:06;;;;;;;46.72;15.93;;;1.30;99.90;;;;;;6210580;23;20028;-68
2023/12/07 10:32:37;;;;;;;35.63;16.75;;;1.20;99.90;;;;;;6212290;23;20423;-68
2023/12/07 10:35:03;;;;;;;30.65;17.88;;;1.30;99.90;;;;;;6185430;23;20029;-68
2023/12/07 10:37:28;;;;;;;37.70;17.50;;;1.40;99.90;;;;;;6212324;23;20035;-68
2023/12/07 10:39:55;;;;;;;35.92;17.30;;;1.40;99.90;;;;;;6210288;23;20030;-68
2023/12/07 10:42:24;;;;;;;32.15;15.90;;;1.40;99.90;;;;;;6209861;23;20020;-68
2023/12/07 10:44:53;;;;;;;32.75;17.05;;;1.50;99.90;;;;;;6210582;23;20027;-68
2023/12/07 10:47:22;;;;;;;34.17;16.88;;;1.50;99.90;;;;;;6212330;23;20067;-68
2023/12/07 10:49:54;;;;;;;35.30;16.30;;;1.50;99.90;;;;;;6212251;23;20796;-68
2023/12/07 10:52:23;;;;;;;33.42;16.70;;;1.50;99.90;;;;;;6212244;23;20143;-68
2023/12/07 10:55:03;;;;;;;29.45;15.85;;;1.50;99.90;;;;;;6212019;23;20313;-68
2023/12/07 10:57:32;;;;;;;49.60;17.02;;;1.50;99.90;;;;;;6211548;23;20100;-68
2023/12/07 11:00:00;;;;;;;31.15;16.92;;;1.60;99.90;;;;;;6211790;23;20376;-69
2023/12/07 11:02:27;;;;;;;35.30;16.55;;;1.50;99.90;;;;;;6212212;23;20050;-69
2023/12/07 11:04:56;;;;;;;42.42;17.05;;;1.50;99.90;;;;;;6212544;23;20096;-69
2023/12/07 11:07:27;;;;;;;31.58;16.45;;;1.60;99.90;;;;;;6212172;23;20024;-68
2023/12/07 11:10:05;;;;;;;41.50;16.67;;;1.60;99.90;;;;;;6211928;23;20122;-69
2023/12/07 11:12:42;;;;;;;39.67;17.08;;;1.50;99.90;;;;;;6212120;23;20013;-69
2023/12/07 11:15:08;;;;;;;30.83;15.32;;;1.50;99.90;;;;;;6212066;23;20055;-69
2023/12/07 11:17:56;;;;;;;45.53;15.82;;;1.40;99.90;;;;;;6209899;23;20055;-69
2023/12/07 11:20:33;;;;;;;44.97;17.25;;;1.50;99.90;;;;;;6210140;23;20016;-69
2023/12/07 11:22:59;;;;;;;30.20;16.42;;;1.50;99.90;;;;;;6210263;23;20079;-69
2023/12/07 11:25:25;;;;;;;35.83;16.05;;;1.60;99.90;;;;;;6211626;23;20027;-69
2023/12/07 11:28:03;;;;;;;52.05;16.63;;;1.50;99.90;;;;;;6210160;23;20024;-69
2023/12/07 11:30:35;;;;;;;31.70;17.10;;;1.60;99.90;;;;;;6212219;23;20027;-69
2023/12/07 11:33:03;;;;;;;36.90;17.08;;;1.60;99.90;;;;;;6212153;23;20078;-69
2023/12/07 11:35:28;;;;;;;32.63;16.80;;;1.70;99.90;;;;;;6210022;23;20103;-69
2023/12/07 11:38:09;;;;;;;32.15;16.77;;;1.70;99.90;;;;;;6211900;23;20417;-69
2023/12/07 11:40:42;;;;;;;29.55;16.23;;;1.70;99.90;;;;;;6213114;23;20079;-69
2023/12/07 11:43:17;;;;;;;34.85;16.65;;;1.80;99.90;;;;;;6212281;23;20016;-69
2023/12/07 11:45:48;;;;;;;44.53;17.73;;;1.80;99.90;;;;;;6211764;23;20083;-69
2023/12/07 11:48:17;;;;;;;41.87;17.93;;;1.80;99.90;;;;;;6212027;23;20337;-69
2023/12/07 11:50:58;;;;;;;41.00;18.17;;;1.80;99.90;;;;;;6212195;23;20024;-69
2023/12/07 11:53:38;;;;;;;35.70;16.75;;;1.70;99.90;;;;;;6211372;23;20020;-69
2023/12/07 11:56:09;;;;;;;42.88;18.17;;;1.80;99.90;;;;;;6211842;23;20020;-69
2023/12/07 11:58:36;;;;;;;43.45;20.02;;;1.80;99.90;;;;;;6211666;23;20048;-69
2023/12/07 12:01:03;;;;;;;36.75;17.92;;;1.80;99.90;;;;;;6209782;23;20034;-69
2023/12/07 12:03:31;;;;;;;41.00;19.08;;;1.90;99.90;;;;;;6210230;23;20166;-69
2023/12/07 12:05:58;;;;;;;41.55;18.08;;;1.80;99.90;;;;;;6211521;23;20016;-68
2023/12/07 12:08:24;;;;;;;48.40;19.65;;;1.90;99.90;;;;;;6211514;23;20391;-69
2023/12/07 12:10:52;;;;;;;41.47;20.02;;;2.00;99.90;;;;;;6211557;23;20019;-68
2023/12/07 12:13:18;;;;;;;43.70;19.98;;;2.00;99.90;;;;;;6211457;23;20096;-67
2023/12/07 12:15:48;;;;;;;40.47;19.00;;;2.10;99.90;;;;;;6211554;23;20457;-67
2023/12/07 12:18:14;;;;;;;42.08;19.73;;;2.10;99.90;;;;;;6211065;23;20025;-68
2023/12/07 12:20:39;;;;;;;42.15;19.98;;;2.10;99.90;;;;;;6211249;23;20218;-67
2023/12/07 12:23:05;;;;;;;50.22;20.80;;;2.20;99.90;;;;;;6209088;23;20102;-69
2023/12/07 12:25:32;;;;;;;47.42;21.25;;;2.20;99.90;;;;;;6209388;23;20020;-69
2023/12/07 12:28:02;;;;;;;46.50;19.55;;;2.10;99.90;;;;;;6208971;23;20376;-70
2023/12/07 12:30:30;;;;;;;48.65;21.55;;;2.10;99.90;;;;;;6208635;23;20087;-69
2023/12/07 12:32:56;;;;;;;51.67;19.83;;;2.20;99.90;;;;;;6211023;23;20354;-70
2023/12/07 12:35:22;;;;;;;51.42;20.95;;;2.20;99.90;;;;;;6210816;23;20099;-69
2023/12/07 12:37:49;;;;;;;53.63;19.48;;;2.10;99.90;;;;;;6208800;23;20096;-69
2023/12/07 12:40:21;;;;;;;59.83;21.38;;;2.10;99.90;;;;;;6210890;23;20013;-69